This is the latest recevied weather packets stored in our database for station/object KC4QLP. If no packets are shown the sender has not sent any weather packets the latest 10 day(s).
| Time | Temp. | Humidity | Pressure | Rain* | Wind** | Luminosity | Snow |
|---|---|---|---|---|---|---|---|
| 1777609819 | 7.22° C | 78% | 1007.8 hPa | 0 mm | - | 0 W/m² | - |
| 1777608019 | 7.22° C | 78% | 1007.7 hPa | 0 mm | - | 0 W/m² | - |
| 1777606218 | 7.22° C | 78% | 1007.8 hPa | 0 mm | - | 0 W/m² | - |
| 1777604419 | 7.22° C | 78% | 1007.9 hPa | 0 mm | - | 0 W/m² | - |
| 1777602619 | 7.22° C | 78% | 1008 hPa | 0 mm | - | 0 W/m² | - |
| 1777600819 | 7.22° C | 78% | 1008.1 hPa | 0 mm | - | 0 W/m² | - |
| 1777599019 | 7.22° C | 77% | 1008 hPa | 0 mm | - | 0 W/m² | - |
| 1777597219 | 7.78° C | 78% | 1007.5 hPa | 0 mm | - | 0 W/m² | - |
| 1777595419 | 7.78° C | 76% | 1007.1 hPa | 0 mm | - | 0 W/m² | - |
| 1777593620 | 8.33° C | 74% | 1006.8 hPa | 0 mm | - | 0 W/m² | - |
| 1777591819 | 8.89° C | 72% | 1006.5 hPa | 0 mm | - | 0 W/m² | - |
| 1777590019 | 8.89° C | 70% | 1006.4 hPa | 0 mm | - | 0 W/m² | - |
| 1777588219 | 10° C | 67% | 1005.9 hPa | 0 mm | - | 0 W/m² | - |
| 1777586419 | 11.11° C | 67% | 1005.6 hPa | 0 mm | - | 0 W/m² | - |
| 1777584619 | 11.11° C | 70% | 1005.3 hPa | 0 mm | - | 0 W/m² | - |
| 1777582819 | 11.11° C | 72% | 1005 hPa | 0 mm | - | 0 W/m² | - |
| 1777581019 | 11.11° C | 71% | 1004.8 hPa | 0 mm | - | 0 W/m² | - |
| 1777579220 | 11.11° C | 73% | 1004.8 hPa | 0 mm | - | 0 W/m² | - |
| 1777577419 | 10.56° C | 73% | 1004.6 hPa | 0 mm | - | 0 W/m² | - |
| 1777575619 | 11.11° C | 76% | 1004.7 hPa | 0 mm | - | 0 W/m² | - |
| 1777573827 | 11.67° C | 77% | 1004.7 hPa | 0 mm | - | 0 W/m² | - |
| 1777572020 | 10° C | 85% | 1004.7 hPa | 0 mm | - | 0 W/m² | - |
| 1777570219 | 10.56° C | 84% | 1004.5 hPa | 0 mm | - | 0 W/m² | - |
| 1777568420 | 10.56° C | 83% | 1004.4 hPa | 0 mm | - | 0 W/m² | - |
| 1777566619 | 10.56° C | 85% | 1004.5 hPa | 0 mm | - | 0 W/m² | - |
* Rain latest hour (hover to see other rain measurements)
** Current wind speed in m/s (hover to see current wind gust speed)